.
WxDataArchive / Data Records for 2009-03-04
2009-03-03 March 2009 2009-03-05

Data Records for Wednesday, 04 March 2009

Time	Temp	Chill	HIndex	Humid	Dewpt	 Wind 	HiWind	WindDir	Rain 	Barom 
-----	----	-----	------	-----	-----	------	------	-------	-----	----- 
00:00	21.4	21.4	21.4	61	10.1	0	0	---	0.00	30.456 
00:05	21.4	21.4	21.4	61	10.1	0	0	---	0.00	30.455 
00:10	21.6	21.6	21.6	60	9.9	0	1	90	0.00	30.453 
00:15	21.8	21.8	21.8	60	10.1	0	1	90	0.00	30.452 
00:20	21.9	21.9	21.9	59	9.8	0	1	90	0.00	30.452 
00:25	22.1	22.1	22.1	60	10.4	0	1	90	0.00	30.453 
00:30	22.2	22.2	22.2	59	10.1	0	0	---	0.00	30.452 
00:35	22.2	22.2	22.2	59	10.1	0	1	90	0.00	30.452 
00:40	22.2	22.2	22.2	60	10.5	0	0	---	0.00	30.451 
00:45	22.2	22.2	22.2	60	10.5	0	0	---	0.00	30.449 
00:50	22.2	22.2	22.2	61	10.8	0	1	90	0.00	30.449 
00:55	22.2	22.2	22.2	60	10.5	0	1	90	0.00	30.447 
01:00	22.2	22.2	22.2	59	10.1	0	1	90	0.00	30.448 
01:05	22.2	22.2	22.2	58	9.7	0	1	90	0.00	30.444 
01:10	22.2	22.2	22.2	58	9.7	0	1	90	0.00	30.441 
01:15	22.2	22.2	22.2	58	9.7	0	1	90	0.00	30.444 
01:20	22.1	22.1	22.1	58	9.6	0	1	90	0.00	30.445 
01:25	21.9	21.9	21.9	58	9.4	0	0	---	0.00	30.446 
01:30	21.8	21.8	21.8	58	9.3	0	1	90	0.00	30.447 
01:35	21.8	21.8	21.8	58	9.3	0	0	---	0.00	30.449 
01:40	21.6	21.6	21.6	58	9.1	0	0	---	0.00	30.447 
01:45	21.4	21.4	21.4	59	9.3	0	0	---	0.00	30.449 
01:50	21.1	21.1	21.1	60	9.4	0	0	---	0.00	30.449 
01:55	20.8	20.8	20.8	61	9.5	0	0	---	0.00	30.451 
02:00	20.5	20.5	20.5	61	9.2	0	0	---	0.00	30.452 
02:05	20.2	20.2	20.2	61	8.9	0	0	---	0.00	30.453 
02:10	19.9	19.9	19.9	62	9.0	0	0	---	0.00	30.455 
02:15	19.5	19.5	19.5	62	8.6	0	0	---	0.00	30.457 
02:20	19.2	19.2	19.2	63	8.7	0	0	---	0.00	30.458 
02:25	19.1	19.1	19.1	64	9.0	0	0	---	0.00	30.456 
02:30	18.8	18.8	18.8	65	9.0	0	0	---	0.00	30.453 
02:35	18.6	18.6	18.6	65	8.8	0	0	---	0.00	30.454 
02:40	18.4	18.4	18.4	65	8.6	0	0	---	0.00	30.457 
02:45	18.1	18.1	18.1	66	8.7	0	0	---	0.00	30.455 
02:50	18.1	18.1	18.1	67	9.0	0	0	---	0.00	30.455 
02:55	18.0	18.0	18.0	68	9.2	0	0	---	0.00	30.454 
03:00	17.8	17.8	17.8	68	9.1	0	0	---	0.00	30.452 
03:05	17.8	17.8	17.8	69	9.4	0	0	---	0.00	30.451 
03:10	17.8	17.8	17.8	69	9.4	0	0	---	0.00	30.452 
03:15	17.8	17.8	17.8	69	9.4	0	0	---	0.00	30.453 
03:20	17.8	17.8	17.8	69	9.4	0	0	---	0.00	30.452 
03:25	17.8	17.8	17.8	70	9.7	0	0	---	0.00	30.453 
03:30	17.8	17.8	17.8	71	10.0	0	0	---	0.00	30.452 
03:35	18.1	18.1	18.1	71	10.3	0	0	---	0.00	30.452 
03:40	18.6	18.6	18.6	69	10.2	0	0	---	0.00	30.452 
03:45	18.9	18.9	18.9	69	10.4	0	0	---	0.00	30.449 
03:50	19.1	19.1	19.1	69	10.6	0	0	---	0.00	30.449 
03:55	19.1	19.1	19.1	69	10.6	0	0	---	0.00	30.449 
04:00	19.2	19.2	19.2	69	10.7	0	0	---	0.00	30.449 
04:05	19.4	19.4	19.4	67	10.3	0	1	90	0.00	30.450 
04:10	19.7	19.7	19.7	67	10.5	0	1	90	0.00	30.444 
04:15	20.2	20.2	20.2	66	10.7	0	1	90	0.00	30.443 
04:20	20.3	20.3	20.3	66	10.8	0	1	90	0.00	30.443 
04:25	20.5	20.5	20.5	65	10.6	0	1	90	0.00	30.443 
04:30	20.6	20.6	20.6	65	10.7	0	0	---	0.00	30.439 
04:35	20.8	20.8	20.8	65	10.9	0	1	90	0.00	30.443 
04:40	21.0	21.0	21.0	65	11.1	0	1	90	0.00	30.444 
04:45	21.1	21.1	21.1	65	11.2	0	1	90	0.00	30.445 
04:50	21.1	21.1	21.1	65	11.2	0	1	90	0.00	30.443 
04:55	21.3	21.3	21.3	65	11.4	0	0	---	0.00	30.439 
05:00	21.3	21.3	21.3	65	11.4	0	1	90	0.00	30.439 
05:05	21.3	21.3	21.3	65	11.4	0	1	90	0.00	30.440 
05:10	21.4	21.4	21.4	65	11.5	0	1	90	0.00	30.443 
05:15	21.4	21.4	21.4	65	11.5	0	2	90	0.00	30.441 
05:20	21.6	21.6	21.6	65	11.7	0	1	90	0.00	30.437 
05:25	21.6	21.6	21.6	65	11.7	0	1	90	0.00	30.439 
05:30	21.6	21.6	21.6	65	11.7	0	1	90	0.00	30.435 
05:35	21.6	21.6	21.6	66	12.0	0	1	90	0.00	30.435 
05:40	21.6	21.6	21.6	66	12.0	0	0	---	0.00	30.437 
05:45	21.6	21.6	21.6	67	12.4	0	1	90	0.00	30.438 
05:50	21.6	21.6	21.6	67	12.4	0	1	90	0.00	30.439 
05:55	21.6	21.6	21.6	67	12.4	0	1	90	0.00	30.440 
06:00	21.6	21.6	21.6	67	12.4	0	1	90	0.00	30.443 
06:05	21.6	21.6	21.6	67	12.4	0	0	---	0.00	30.445 
06:10	21.4	21.4	21.4	67	12.2	0	1	90	0.00	30.444 
06:15	21.3	21.3	21.3	67	12.1	0	1	90	0.00	30.448 
06:20	21.1	21.1	21.1	67	11.9	0	1	90	0.00	30.444 
06:25	21.0	21.0	21.0	68	12.1	0	0	---	0.00	30.445 
06:30	21.0	21.0	21.0	68	12.1	0	1	90	0.00	30.443 
06:35	21.0	21.0	21.0	68	12.1	0	1	90	0.00	30.446 
06:40	21.0	21.0	21.0	68	12.1	0	1	90	0.00	30.450 
06:45	21.1	21.1	21.1	68	12.2	0	1	90	0.00	30.447 
06:50	21.3	21.3	21.3	68	12.4	0	1	90	0.00	30.444 
06:55	21.4	21.4	21.4	68	12.5	0	2	90	0.00	30.445 
07:00	21.6	21.6	21.6	67	12.4	0	2	90	0.00	30.444 
07:05	21.6	21.6	21.6	67	12.4	0	1	90	0.00	30.442 
07:10	21.8	21.8	21.8	67	12.6	0	1	90	0.00	30.443 
07:15	21.8	21.8	21.8	67	12.6	0	1	90	0.00	30.442 
07:20	21.9	21.9	21.9	67	12.7	0	1	90	0.00	30.443 
07:25	21.9	21.9	21.9	66	12.3	0	1	90	0.00	30.446 
07:30	21.9	21.9	21.9	66	12.3	0	1	90	0.00	30.447 
07:35	22.1	22.1	22.1	67	12.8	0	1	90	0.00	30.447 
07:40	22.1	22.1	22.1	66	12.5	0	2	90	0.00	30.442 
07:45	22.1	22.1	22.1	66	12.5	0	1	90	0.00	30.441 
07:50	22.1	22.1	22.1	65	12.2	0	1	90	0.00	30.441 
07:55	22.2	22.2	22.2	65	12.3	0	1	90	0.00	30.442 
08:00	22.4	22.4	22.4	64	12.1	0	2	112	0.00	30.441 
08:05	22.7	22.7	22.7	64	12.4	0	2	112	0.00	30.440 
08:10	23.0	23.0	23.0	63	12.3	0	2	112	0.00	30.442 
08:15	23.3	23.3	23.3	62	12.2	1	3	135	0.00	30.439 
08:20	23.6	23.6	23.6	61	12.2	1	3	112	0.00	30.441 
08:25	23.8	23.8	23.8	60	12.0	1	3	90	0.00	30.440 
08:30	24.1	24.1	24.1	59	11.9	1	3	112	0.00	30.441 
08:35	24.5	24.5	24.5	58	11.9	0	2	112	0.00	30.443 
08:40	24.8	24.8	24.8	58	12.1	0	2	112	0.00	30.442 
08:45	25.1	25.1	25.1	57	12.0	1	4	112	0.00	30.442 
08:50	25.4	25.4	25.4	57	12.3	1	2	90	0.00	30.445 
08:55	25.7	25.7	25.7	54	11.4	1	3	90	0.00	30.447 
09:00	26.1	26.1	26.1	54	11.8	0	3	112	0.00	30.446 
09:05	26.6	26.6	26.6	54	12.2	0	2	112	0.00	30.447 
09:10	27.2	27.2	27.2	52	11.9	1	3	225	0.00	30.447 
09:15	27.6	27.6	27.6	51	11.9	1	3	68	0.00	30.447 
09:20	28.1	28.1	28.1	50	11.9	1	4	90	0.00	30.447 
09:25	28.5	28.5	28.5	48	11.3	1	4	90	0.00	30.447 
09:30	28.7	28.7	28.7	47	11.0	1	6	90	0.00	30.444 
09:35	28.8	28.8	28.8	47	11.1	0	2	270	0.00	30.443 
09:40	29.1	29.1	29.1	48	11.9	0	1	270	0.00	30.440 
09:45	30.1	30.1	30.1	46	11.8	1	3	270	0.00	30.438 
09:50	31.2	31.2	31.2	46	12.9	1	3	112	0.00	30.437 
09:55	31.6	31.6	31.6	44	12.2	1	5	112	0.00	30.438 
10:00	32.4	32.4	32.4	42	11.9	1	5	90	0.00	30.436 
10:05	32.8	32.8	32.8	41	11.7	1	4	112	0.00	30.433 
10:10	32.7	32.7	32.7	42	12.2	1	3	248	0.00	30.436 
10:15	32.7	32.7	32.7	42	12.2	1	4	248	0.00	30.440 
10:20	32.8	32.8	32.8	41	11.7	2	6	270	0.00	30.436 
10:25	33.5	33.5	33.5	42	12.9	1	4	90	0.00	30.435 
10:30	33.8	33.8	33.8	40	12.1	2	5	112	0.00	30.434 
10:35	34.0	34.0	34.0	40	12.2	2	6	68	0.00	30.432 
10:40	34.0	34.0	34.0	38	11.1	2	10	248	0.00	30.431 
10:45	33.8	33.8	33.8	38	10.9	2	6	270	0.00	30.432 
10:50	33.8	33.8	33.8	40	12.1	1	5	248	0.00	30.432 
10:55	34.3	34.3	34.3	39	11.9	2	5	248	0.00	30.432 
11:00	34.9	34.9	34.9	39	12.5	2	7	112	0.00	30.427 
11:05	35.3	35.3	35.3	38	12.3	2	4	90	0.00	30.427 
11:10	35.8	35.8	35.8	37	12.1	2	5	90	0.00	30.426 
11:15	36.0	36.0	36.0	35	11.0	1	5	68	0.00	30.426 
11:20	36.0	36.0	36.0	36	11.7	1	5	90	0.00	30.426 
11:25	35.6	35.6	35.6	35	10.7	1	5	248	0.00	30.424 
11:30	35.5	35.5	35.5	38	12.4	2	6	248	0.00	30.422 
11:35	35.9	35.9	35.9	38	12.8	3	7	90	0.00	30.422 
11:40	36.0	36.0	36.0	37	12.3	1	4	90	0.00	30.417 
11:45	36.3	36.3	36.3	35	11.3	2	6	90	0.00	30.412 
11:50	36.5	36.5	36.5	35	11.5	2	5	270	0.00	30.410 
11:55	36.8	36.8	36.8	36	12.4	2	6	90	0.00	30.407 
12:00	37.0	37.0	37.0	34	11.3	1	6	90	0.00	30.406 
12:05	37.0	37.0	37.0	33	10.6	3	7	90	0.00	30.404 
12:10	37.0	37.0	37.0	36	12.6	2	5	68	0.00	30.404 
12:15	37.0	37.0	37.0	37	13.2	2	5	90	0.00	30.397 
12:20	37.5	37.5	37.5	35	12.4	3	7	90	0.00	30.398 
12:25	37.6	37.6	37.6	39	14.9	1	4	90	0.00	30.392 
12:30	37.6	37.6	37.6	34	11.8	3	7	248	0.00	30.394 
12:35	37.6	37.6	37.6	34	11.8	1	4	248	0.00	30.391 
12:40	37.6	37.6	37.6	33	11.1	2	6	270	0.00	30.390 
12:45	38.0	38.0	38.0	33	11.5	2	5	270	0.00	30.389 
12:50	38.2	38.2	38.2	34	12.3	2	6	270	0.00	30.387 
12:55	38.2	38.2	38.2	31	10.3	2	5	90	0.00	30.383 
13:00	38.2	38.2	38.2	31	10.3	2	6	90	0.00	30.379 
13:05	37.8	37.8	37.8	31	9.9	2	5	90	0.00	30.378 
13:10	37.9	37.9	37.9	31	10.0	1	3	90	0.00	30.377 
13:15	37.8	37.8	37.8	31	9.9	1	4	248	0.00	30.375 
13:20	37.9	37.9	37.9	30	9.3	1	4	292	0.00	30.368 
13:25	38.2	38.2	38.2	30	9.5	1	5	248	0.00	30.365 
13:30	38.6	38.6	38.6	30	9.9	1	4	68	0.00	30.362 
13:35	38.8	38.8	38.8	31	10.8	1	5	0	0.00	30.360 
13:40	38.6	38.6	38.6	30	9.9	2	7	225	0.00	30.359 
13:45	38.5	38.5	38.5	31	10.5	1	4	248	0.00	30.358 
13:50	38.5	38.5	38.5	32	11.2	1	4	225	0.00	30.356 
13:55	38.3	38.3	38.3	31	10.3	2	5	90	0.00	30.356 
14:00	38.3	38.3	38.3	31	10.3	1	4	112	0.00	30.360 
14:05	38.3	38.3	38.3	32	11.1	1	4	68	0.00	30.361 
14:10	38.5	38.5	38.5	31	10.5	1	3	45	0.00	30.354 
14:15	38.5	38.5	38.5	32	11.2	2	5	90	0.00	30.348 
14:20	38.5	38.5	38.5	32	11.2	2	5	90	0.00	30.347 
14:25	38.6	38.6	38.6	33	12.0	1	4	90	0.00	30.341 
14:30	38.8	38.8	38.8	32	11.5	1	4	112	0.00	30.338 
14:35	39.1	39.1	39.1	35	13.8	1	3	112	0.00	30.337 
14:40	39.3	39.3	39.3	34	13.3	1	4	248	0.00	30.337 
14:45	39.8	39.8	39.8	34	13.7	1	3	68	0.00	30.334 
14:50	39.9	39.9	39.9	35	14.5	1	4	68	0.00	30.331 
14:55	40.2	40.2	40.2	33	13.4	1	5	90	0.00	30.330 
15:00	40.1	40.1	40.1	33	13.3	2	4	135	0.00	30.328 
15:05	40.3	40.3	40.3	35	14.8	1	3	45	0.00	30.326 
15:10	40.8	40.8	40.8	35	15.3	1	5	90	0.00	30.323 
15:15	41.1	41.1	41.1	33	14.2	1	5	90	0.00	30.322 
15:20	41.1	41.1	41.1	33	14.2	1	4	90	0.00	30.317 
15:25	41.2	41.2	41.2	35	15.6	1	5	112	0.00	30.314 
15:30	41.2	41.2	41.2	37	16.9	2	5	112	0.00	30.313 
15:35	41.3	41.3	41.3	36	16.4	1	3	248	0.00	30.312 
15:40	41.3	41.3	41.3	38	17.6	2	5	68	0.00	30.312 
15:45	41.3	41.3	41.3	39	18.2	2	6	248	0.00	30.312 
15:50	41.3	41.3	41.3	39	18.2	2	4	68	0.00	30.315 
15:55	41.1	41.1	41.1	36	16.2	1	4	112	0.00	30.314 
16:00	41.1	41.1	41.1	37	16.8	1	4	112	0.00	30.312 
16:05	41.1	41.1	41.1	37	16.8	2	5	90	0.00	30.310 
16:10	40.9	40.9	40.9	38	17.3	1	4	90	0.00	30.311 
16:15	41.1	41.1	41.1	38	17.5	1	3	90	0.00	30.309 
16:20	41.1	41.1	41.1	39	18.1	1	4	292	0.00	30.307 
16:25	41.1	41.1	41.1	39	18.1	1	4	112	0.00	30.305 
16:30	41.2	41.2	41.2	39	18.1	1	2	45	0.00	30.301 
16:35	41.2	41.2	41.2	38	17.5	1	4	112	0.00	30.301 
16:40	41.1	41.1	41.1	36	16.2	3	5	90	0.00	30.301 
16:45	40.9	40.9	40.9	34	14.7	2	5	112	0.00	30.298 
16:50	40.9	40.9	40.9	35	15.4	1	5	68	0.00	30.296 
16:55	40.9	40.9	40.9	35	15.4	1	4	248	0.00	30.294 
17:00	40.9	40.9	40.9	35	15.4	1	4	90	0.00	30.294 
17:05	40.9	40.9	40.9	34	14.7	2	6	90	0.00	30.293 
17:10	40.8	40.8	40.8	34	14.6	1	4	90	0.00	30.291 
17:15	40.8	40.8	40.8	35	15.3	1	3	90	0.00	30.292 
17:20	40.6	40.6	40.6	34	14.5	2	4	112	0.00	30.291 
17:25	40.6	40.6	40.6	34	14.5	1	5	68	0.00	30.291 
17:30	40.5	40.5	40.5	34	14.4	1	3	112	0.00	30.291 
17:35	40.5	40.5	40.5	35	15.0	1	4	112	0.00	30.290 
17:40	40.3	40.3	40.3	35	14.8	1	3	135	0.00	30.293 
17:45	40.3	40.3	40.3	35	14.8	1	3	90	0.00	30.294 
17:50	40.2	40.2	40.2	35	14.8	1	3	90	0.00	30.293 
17:55	40.1	40.1	40.1	36	15.3	1	3	90	0.00	30.293 
18:00	40.1	40.1	40.1	36	15.3	0	2	90	0.00	30.292 
18:05	39.9	39.9	39.9	37	15.8	0	2	135	0.00	30.293 
18:10	39.6	39.6	39.6	38	16.1	0	1	135	0.00	30.293 
18:15	39.3	39.3	39.3	39	16.4	0	2	135	0.00	30.292 
18:20	39.1	39.1	39.1	39	16.3	0	1	135	0.00	30.292 
18:25	38.8	38.8	38.8	40	16.6	0	0	---	0.00	30.292 
18:30	38.3	38.3	38.3	41	16.7	0	0	---	0.00	30.292 
18:35	37.9	37.9	37.9	42	16.9	0	1	135	0.00	30.292 
18:40	37.5	37.5	37.5	43	17.1	0	1	135	0.00	30.294 
18:45	37.0	37.0	37.0	43	16.6	0	0	---	0.00	30.297 
18:50	36.6	36.6	36.6	44	16.8	0	0	---	0.00	30.297 
18:55	36.0	36.0	36.0	44	16.2	0	0	---	0.00	30.297 
19:00	35.5	35.5	35.5	47	17.3	0	0	---	0.00	30.295 
19:05	34.9	34.9	34.9	48	17.2	0	0	---	0.00	30.297 
19:10	34.4	34.4	34.4	49	17.2	0	0	---	0.00	30.297 
19:15	34.0	34.0	34.0	49	16.9	0	0	---	0.00	30.298 
19:20	33.5	33.5	33.5	50	16.9	0	0	---	0.00	30.298 
19:25	33.1	33.1	33.1	51	17.0	0	0	---	0.00	30.301 
19:30	32.8	32.8	32.8	52	17.1	0	0	---	0.00	30.300 
19:35	32.7	32.7	32.7	53	17.5	0	0	---	0.00	30.298 
19:40	32.5	32.5	32.5	54	17.7	0	0	---	0.00	30.297 
19:45	32.2	32.2	32.2	54	17.4	0	0	---	0.00	30.297 
19:50	31.9	31.9	31.9	54	17.2	0	0	---	0.00	30.298 
19:55	31.8	31.8	31.8	55	17.5	0	1	135	0.00	30.299 
20:00	31.5	31.5	31.5	55	17.2	0	0	---	0.00	30.300 
20:05	31.3	31.3	31.3	55	17.0	0	0	---	0.00	30.294 
20:10	31.2	31.2	31.2	56	17.4	0	0	---	0.00	30.298 
20:15	31.0	31.0	31.0	57	17.6	0	0	---	0.00	30.297 
20:20	30.7	30.7	30.7	57	17.3	0	0	---	0.00	30.298 
20:25	30.7	30.7	30.7	58	17.7	0	0	---	0.00	30.297 
20:30	30.7	30.7	30.7	58	17.7	0	0	---	0.00	30.296 
20:35	30.7	30.7	30.7	58	17.7	0	0	---	0.00	30.295 
20:40	30.7	30.7	30.7	58	17.7	0	1	135	0.00	30.291 
20:45	30.7	30.7	30.7	57	17.3	0	0	---	0.00	30.287 
20:50	30.7	30.7	30.7	57	17.3	0	0	---	0.00	30.286 
20:55	30.9	30.9	30.9	57	17.5	0	1	135	0.00	30.285 
21:00	31.0	31.0	31.0	56	17.2	0	2	135	0.00	30.284 
21:05	31.2	31.2	31.2	55	16.9	0	1	135	0.00	30.279 
21:10	31.3	31.3	31.3	55	17.0	0	1	135	0.00	30.278 
21:15	31.3	31.3	31.3	55	17.0	0	1	135	0.00	30.279 
21:20	31.3	31.3	31.3	54	16.6	0	1	135	0.00	30.276 
21:25	31.3	31.3	31.3	54	16.6	0	1	135	0.00	30.278 
21:30	31.2	31.2	31.2	55	16.9	0	1	135	0.00	30.279 
21:35	31.0	31.0	31.0	55	16.8	0	1	135	0.00	30.278 
21:40	31.0	31.0	31.0	55	16.8	0	1	135	0.00	30.279 
21:45	30.9	30.9	30.9	55	16.7	0	0	---	0.00	30.282 
21:50	30.7	30.7	30.7	55	16.5	0	0	---	0.00	30.281 
21:55	30.6	30.6	30.6	55	16.4	0	0	---	0.00	30.280 
22:00	30.6	30.6	30.6	55	16.4	0	1	135	0.00	30.279 
22:05	30.3	30.3	30.3	55	16.1	0	0	---	0.00	30.276 
22:10	30.1	30.1	30.1	55	15.9	0	0	---	0.00	30.276 
22:15	30.0	30.0	30.0	56	16.2	0	0	---	0.00	30.274 
22:20	29.8	29.8	29.8	57	16.4	0	0	---	0.00	30.274 
22:25	29.5	29.5	29.5	57	16.2	0	0	---	0.00	30.274 
22:30	29.3	29.3	29.3	58	16.4	0	0	---	0.00	30.271 
22:35	28.8	28.8	28.8	58	15.9	0	0	---	0.00	30.272 
22:40	28.5	28.5	28.5	59	16.0	0	0	---	0.00	30.271 
22:45	28.1	28.1	28.1	60	16.0	0	0	---	0.00	30.274 
22:50	27.6	27.6	27.6	62	16.3	0	0	---	0.00	30.274 
22:55	27.5	27.5	27.5	62	16.2	0	0	---	0.00	30.273 
23:00	27.2	27.2	27.2	63	16.3	0	0	---	0.00	30.270 
23:05	27.2	27.2	27.2	63	16.3	0	0	---	0.00	30.271 
23:10	27.0	27.0	27.0	63	16.1	0	0	---	0.00	30.270 
23:15	26.9	26.9	26.9	64	16.4	0	0	---	0.00	30.267 
23:20	26.7	26.7	26.7	64	16.2	0	0	---	0.00	30.266 
23:25	26.7	26.7	26.7	65	16.5	0	0	---	0.00	30.265 
23:30	26.7	26.7	26.7	64	16.2	0	0	---	0.00	30.263 
23:35	26.9	26.9	26.9	64	16.4	0	0	---	0.00	30.261 
23:40	26.9	26.9	26.9	64	16.4	0	0	---	0.00	30.260 
23:45	26.9	26.9	26.9	64	16.4	0	0	---	0.00	30.261 
23:50	26.7	26.7	26.7	64	16.2	0	0	---	0.00	30.261 
23:55	26.6	26.6	26.6	64	16.1	0	0	---	0.00	30.263 

CoCoRaHS
IN-AL-39
A2 Web Hosting
Creative Commons License
GoDaddy
search engine by freefind advanced

loaded 2018-11-13 21:18:45 • last modified 2010-11-18 10:43:29
Privacy PolicyDisclaimer
• wx.awcolley.com is powered by PmWiki v.2002016 •
• all content (unless otherwise noted) © 2018 A W Colley